Time;durP1;ratioP1;P1;durP2;ratioP2;P2;SDS_P1;SDS_P2;PMS_P1;PMS_P2;Temp;Humidity;BMP_temperature;BMP_pressure;BME280_temperature;BME280_humidity;BME280_pressure;Samples;Min_cycle;Max_cycle;Signal;HPM_P1;HPM_P2
2023/04/30 00:02:20;;;;;;;6.38;5.07;;;;;;;-143.29;100.00;62188.47;4892435;29;20028;-80
2023/04/30 00:04:46;;;;;;;8.18;5.43;;;;;;;-143.29;100.00;62188.47;4894897;29;20025;-80
2023/04/30 00:07:11;;;;;;;7.32;5.65;;;;;;;-143.29;100.00;62188.47;4894194;29;20025;-80
2023/04/30 00:09:36;;;;;;;9.18;5.55;;;;;;;-143.29;100.00;62188.47;4894610;29;20032;-80
2023/04/30 00:12:02;;;;;;;7.90;5.97;;;;;;;-143.29;100.00;62188.47;4895363;29;20056;-80
2023/04/30 00:14:27;;;;;;;10.18;5.43;;;;;;;-143.29;100.00;62188.47;4895655;29;20033;-80
2023/04/30 00:16:53;;;;;;;7.25;5.18;;;;;;;-143.29;100.00;62188.47;4892542;29;20036;-80
2023/04/30 00:19:18;;;;;;;6.70;5.50;;;;;;;-143.29;100.00;62188.47;4894934;29;20036;-80
2023/04/30 00:21:43;;;;;;;7.35;5.22;;;;;;;-143.29;100.00;62188.47;4896682;29;20029;-80
2023/04/30 00:24:09;;;;;;;7.15;4.95;;;;;;;-143.29;100.00;62188.47;4893939;29;20079;-80
2023/04/30 00:26:34;;;;;;;8.32;5.35;;;;;;;-143.29;100.00;62188.47;4894674;29;20021;-80
2023/04/30 00:28:59;;;;;;;7.40;5.22;;;;;;;-143.29;100.00;62188.47;4895183;29;20050;-80
2023/04/30 00:31:25;;;;;;;7.78;5.80;;;;;;;-143.29;100.00;62188.47;4896491;29;20036;-80
2023/04/30 00:33:50;;;;;;;8.48;5.28;;;;;;;-143.29;100.00;62188.47;4893253;29;20060;-80
2023/04/30 00:36:16;;;;;;;8.63;5.90;;;;;;;-143.29;100.00;62188.47;4893396;29;20039;-80
2023/04/30 00:38:41;;;;;;;8.05;5.40;;;;;;;-143.29;100.00;62188.47;4893969;29;20029;-80
2023/04/30 00:41:06;;;;;;;8.52;4.78;;;;;;;-143.29;100.00;62188.47;4896524;29;20076;-80
2023/04/30 00:43:33;;;;;;;8.20;4.97;;;;;;;-143.29;100.00;62188.47;4895043;29;20544;-80
2023/04/30 00:45:58;;;;;;;6.30;5.13;;;;;;;-143.29;100.00;62188.47;4894541;29;20020;-80
2023/04/30 00:48:25;;;;;;;7.60;4.70;;;;;;;-143.29;100.00;62188.47;4893747;29;20524;-80
2023/04/30 00:50:50;;;;;;;6.53;4.97;;;;;;;-143.29;100.00;62188.47;4895431;29;20054;-80
2023/04/30 00:53:16;;;;;;;7.25;5.22;;;;;;;-143.29;100.00;62188.47;4894619;29;20815;-80
2023/04/30 00:55:43;;;;;;;6.55;4.85;;;;;;;-143.29;100.00;62188.47;4894197;29;20108;-79
2023/04/30 00:58:08;;;;;;;6.40;4.50;;;;;;;-143.29;100.00;62188.47;4894578;29;20033;-80
2023/04/30 01:00:34;;;;;;;7.05;4.63;;;;;;;-143.29;100.00;62188.47;4894103;29;20487;-80
2023/04/30 01:02:59;;;;;;;7.85;4.88;;;;;;;-143.29;100.00;62188.47;4893766;29;20126;-80
2023/04/30 01:05:25;;;;;;;7.05;4.78;;;;;;;-143.29;100.00;62188.47;4892246;29;20037;-80
2023/04/30 01:07:51;;;;;;;5.20;4.20;;;;;;;-143.29;100.00;62188.47;4893686;29;20036;-80
2023/04/30 01:10:18;;;;;;;6.45;4.47;;;;;;;-143.29;100.00;62188.47;4892076;29;20060;-80
2023/04/30 01:13:02;;;;;;;7.72;4.63;;;;;;;-143.29;100.00;62188.47;4891682;29;20554;-80
2023/04/30 01:15:37;;;;;;;8.63;5.07;;;;;;;-143.29;100.00;62188.47;4889133;29;20059;-80
2023/04/30 01:18:16;;;;;;;8.25;5.53;;;;;;;-143.29;100.00;62188.47;4886542;29;20028;-80
2023/04/30 01:20:51;;;;;;;6.70;4.57;;;;;;;-143.29;100.00;62188.47;4891848;29;20029;-80
2023/04/30 01:23:20;;;;;;;5.68;4.35;;;;;;;-143.29;100.00;62188.47;4893719;29;20040;-80
2023/04/30 01:25:59;;;;;;;7.40;4.32;;;;;;;-143.29;100.00;62188.47;4891286;29;20032;-80
2023/04/30 01:28:26;;;;;;;6.55;4.25;;;;;;;-143.29;100.00;62188.47;4905327;29;20116;-80
2023/04/30 01:30:52;;;;;;;6.53;4.68;;;;;;;-143.29;100.00;62188.47;4891809;29;20129;-80
2023/04/30 01:33:18;;;;;;;6.25;4.13;;;;;;;-143.29;100.00;62188.47;4893218;29;20383;-80
2023/04/30 01:35:55;;;;;;;6.25;4.43;;;;;;;-143.29;100.00;62188.47;4890653;29;20028;-80
2023/04/30 01:38:39;;;;;;;6.72;3.55;;;;;;;-143.29;100.00;62188.47;4891587;29;20048;-80
2023/04/30 01:41:28;;;;;;;7.50;4.72;;;;;;;-143.29;100.00;62188.47;4893306;29;20570;-80
2023/04/30 01:43:59;;;;;;;8.02;4.20;;;;;;;-143.29;100.00;62188.47;4891801;29;20088;-80
2023/04/30 01:46:29;;;;;;;7.22;4.40;;;;;;;-143.29;100.00;62188.47;4891713;29;20056;-80
2023/04/30 01:48:57;;;;;;;6.18;4.43;;;;;;;-143.29;100.00;62188.47;4891964;29;20167;-80
2023/04/30 01:51:26;;;;;;;6.55;4.57;;;;;;;-143.29;100.00;62188.47;4893968;29;20482;-80
2023/04/30 01:53:55;;;;;;;7.05;4.63;;;;;;;-143.29;100.00;62188.47;4894955;29;20043;-80
2023/04/30 01:56:26;;;;;;;8.18;4.63;;;;;;;-143.29;100.00;62188.47;4892847;29;20056;-80
2023/04/30 01:58:52;;;;;;;7.40;5.20;;;;;;;-143.29;100.00;62188.47;4889904;29;20024;-80
2023/04/30 02:01:28;;;;;;;7.20;4.78;;;;;;;-143.29;100.00;62188.47;4894319;29;20052;-80
2023/04/30 02:03:53;;;;;;;7.75;5.68;;;;;;;-143.29;100.00;62188.47;4895154;29;20024;-80
2023/04/30 02:06:19;;;;;;;7.80;4.90;;;;;;;-143.29;100.00;62188.47;4895107;29;20495;-80
2023/04/30 02:08:44;;;;;;;6.97;5.15;;;;;;;-143.29;100.00;62188.47;4898095;29;20063;-80
2023/04/30 02:11:10;;;;;;;8.85;5.40;;;;;;;-143.29;100.00;62188.47;4898089;29;20179;-80
2023/04/30 02:13:35;;;;;;;5.65;5.00;;;;;;;-143.29;100.00;62188.47;4896575;29;20398;-79
2023/04/30 02:16:00;;;;;;;7.22;5.65;;;;;;;-143.29;100.00;62188.47;4894299;29;20029;-80
2023/04/30 02:18:26;;;;;;;7.18;5.40;;;;;;;-143.29;100.00;62188.47;4898405;29;20039;-80
2023/04/30 02:20:51;;;;;;;10.23;5.85;;;;;;;-143.29;100.00;62188.47;4894815;29;20029;-80
2023/04/30 02:23:16;;;;;;;8.30;5.57;;;;;;;-143.29;100.00;62188.47;4896899;29;20117;-80
2023/04/30 02:25:42;;;;;;;8.50;5.70;;;;;;;-143.29;100.00;62188.47;4898636;29;20396;-80
2023/04/30 02:28:08;;;;;;;7.25;4.93;;;;;;;-143.29;100.00;62188.47;4896740;29;20569;-80
2023/04/30 02:30:34;;;;;;;6.72;5.35;;;;;;;-143.29;100.00;62188.47;4897022;29;20163;-80
2023/04/30 02:32:59;;;;;;;8.40;5.85;;;;;;;-143.29;100.00;62188.47;4895567;29;21313;-80
2023/04/30 02:35:24;;;;;;;8.75;5.75;;;;;;;-143.29;100.00;62188.47;4896011;29;20033;-80
2023/04/30 02:37:50;;;;;;;7.97;5.78;;;;;;;-143.29;100.00;62188.47;4898122;29;20036;-80
2023/04/30 02:40:15;;;;;;;8.18;5.90;;;;;;;-143.29;100.00;62188.47;4899430;29;20040;-80
2023/04/30 02:42:40;;;;;;;9.02;6.03;;;;;;;-143.29;100.00;62188.47;4896559;29;20024;-80
2023/04/30 02:45:06;;;;;;;9.82;5.57;;;;;;;-143.29;100.00;62188.47;4896237;29;20028;-80
2023/04/30 02:47:31;;;;;;;9.43;6.30;;;;;;;-143.29;100.00;62188.47;4895547;29;20051;-80
2023/04/30 02:49:57;;;;;;;7.68;5.10;;;;;;;-143.29;100.00;62188.47;4897651;29;20068;-80
2023/04/30 02:52:22;;;;;;;6.68;5.60;;;;;;;-143.29;100.00;62188.47;4896340;29;20033;-80
2023/04/30 02:54:48;;;;;;;6.97;5.38;;;;;;;-143.29;100.00;62188.47;4894049;29;20087;-80
2023/04/30 02:57:13;;;;;;;8.68;6.30;;;;;;;-143.29;100.00;62188.47;4894272;29;20060;-80
2023/04/30 02:59:38;;;;;;;8.30;6.03;;;;;;;-143.29;100.00;62188.47;4893890;29;20024;-81
2023/04/30 03:02:04;;;;;;;8.50;5.55;;;;;;;-143.29;100.00;62188.47;4895730;29;20039;-81
2023/04/30 03:04:29;;;;;;;8.57;6.25;;;;;;;-143.29;100.00;62188.47;4897470;29;20036;-80
2023/04/30 03:06:55;;;;;;;7.93;5.68;;;;;;;-143.29;100.00;62188.47;4894925;29;20044;-80
2023/04/30 03:09:20;;;;;;;7.28;5.07;;;;;;;-143.29;100.00;62188.47;4891383;29;20460;-80
2023/04/30 03:11:45;;;;;;;9.43;5.95;;;;;;;-143.29;100.00;62188.47;4895264;29;20574;-80
2023/04/30 03:14:11;;;;;;;8.98;6.13;;;;;;;-143.29;100.00;62188.47;4892917;29;20483;-80
2023/04/30 03:16:36;;;;;;;10.25;6.80;;;;;;;-143.29;100.00;62188.47;4894579;29;20056;-80
2023/04/30 03:19:01;;;;;;;9.48;6.10;;;;;;;-143.29;100.00;62188.47;4894191;29;20036;-80
2023/04/30 03:21:27;;;;;;;8.57;6.50;;;;;;;-143.29;100.00;62188.47;4894900;29;20156;-80
2023/04/30 03:23:52;;;;;;;8.38;6.70;;;;;;;-143.29;100.00;62188.47;4894678;29;20119;-80
2023/04/30 03:26:19;;;;;;;8.30;6.32;;;;;;;-143.29;100.00;62188.47;4894210;29;20072;-80
2023/04/30 03:28:45;;;;;;;9.50;7.15;;;;;;;-143.29;100.00;62188.47;4895498;29;20099;-80
2023/04/30 03:31:10;;;;;;;9.10;6.15;;;;;;;-143.29;100.00;62188.47;4894587;29;20483;-80
2023/04/30 03:33:35;;;;;;;9.10;6.45;;;;;;;-143.29;100.00;62188.47;4892100;29;20044;-80
2023/04/30 03:36:01;;;;;;;8.20;5.97;;;;;;;-143.29;100.00;62188.47;4894424;29;20395;-80
2023/04/30 03:38:26;;;;;;;12.10;6.40;;;;;;;-143.29;100.00;62188.47;4895794;29;20360;-80
2023/04/30 03:40:51;;;;;;;11.43;6.70;;;;;;;-143.29;100.00;62188.47;4895753;29;20040;-80
2023/04/30 03:43:17;;;;;;;11.30;7.13;;;;;;;-143.29;100.00;62188.47;4894485;29;20025;-80
2023/04/30 03:45:42;;;;;;;12.02;6.93;;;;;;;-143.29;100.00;62188.47;4897608;29;20025;-80
2023/04/30 03:48:08;;;;;;;8.77;6.28;;;;;;;-143.29;100.00;62188.47;4892521;29;20029;-80
2023/04/30 03:50:33;;;;;;;9.40;6.38;;;;;;;-143.29;100.00;62188.47;4897195;29;20033;-80
2023/04/30 03:52:59;;;;;;;7.40;6.35;;;;;;;-143.29;100.00;62188.47;4895255;29;20028;-80
2023/04/30 03:55:25;;;;;;;10.23;6.97;;;;;;;-143.29;100.00;62188.47;4892099;29;20029;-80
2023/04/30 03:57:50;;;;;;;13.40;7.95;;;;;;;-143.29;100.00;62188.47;4891474;29;20612;-80
2023/04/30 04:00:16;;;;;;;7.95;6.88;;;;;;;-143.29;100.00;62188.47;4893851;29;20439;-80
2023/04/30 04:02:41;;;;;;;12.43;7.15;;;;;;;-143.29;100.00;62188.47;4893960;29;20037;-80
2023/04/30 04:05:07;;;;;;;8.95;6.95;;;;;;;-143.29;100.00;62188.47;4894180;29;20023;-80
2023/04/30 04:07:32;;;;;;;8.43;6.55;;;;;;;-143.29;100.00;62188.47;4893961;29;20166;-80
2023/04/30 04:09:57;;;;;;;9.38;6.38;;;;;;;-143.29;100.00;62188.47;4896484;29;20032;-80
2023/04/30 04:12:23;;;;;;;10.65;7.25;;;;;;;-143.29;100.00;62188.47;4895149;29;20064;-81
2023/04/30 04:14:48;;;;;;;11.32;6.97;;;;;;;-143.29;100.00;62188.47;4892749;29;20112;-81
2023/04/30 04:17:13;;;;;;;11.02;6.55;;;;;;;-143.29;100.00;62188.47;4893866;29;20033;-80
2023/04/30 04:19:39;;;;;;;8.02;7.07;;;;;;;-143.29;100.00;62188.47;4895779;29;20055;-80
2023/04/30 04:22:05;;;;;;;8.68;6.97;;;;;;;-143.29;100.00;62188.47;4895726;29;20076;-80
2023/04/30 04:24:32;;;;;;;9.32;6.47;;;;;;;-143.29;100.00;62188.47;4893418;29;20036;-80
2023/04/30 04:26:57;;;;;;;11.45;6.93;;;;;;;-143.29;100.00;62188.47;4894066;29;20125;-80
2023/04/30 04:29:22;;;;;;;9.23;6.38;;;;;;;-143.29;100.00;62188.47;4893572;29;20119;-80
2023/04/30 04:31:49;;;;;;;8.20;6.90;;;;;;;-143.29;100.00;62188.47;4893761;29;20033;-80
2023/04/30 04:34:15;;;;;;;8.75;6.93;;;;;;;-143.29;100.00;62188.47;4894372;29;20033;-80
2023/04/30 04:36:41;;;;;;;9.45;7.38;;;;;;;-143.29;100.00;62188.47;4894817;29;20028;-80
2023/04/30 04:39:06;;;;;;;8.75;6.78;;;;;;;-143.29;100.00;62188.47;4897574;29;20056;-80
2023/04/30 04:41:34;;;;;;;11.25;6.72;;;;;;;-143.29;100.00;62188.47;4894166;29;20028;-80
2023/04/30 04:44:00;;;;;;;9.85;6.22;;;;;;;-143.29;100.00;62188.47;4894691;29;20028;-80
2023/04/30 04:46:27;;;;;;;7.53;6.15;;;;;;;-143.29;100.00;62188.47;4891305;29;20111;-80
2023/04/30 04:48:53;;;;;;;11.90;7.40;;;;;;;-143.29;100.00;62188.47;4894672;29;20032;-80
2023/04/30 04:51:18;;;;;;;7.95;6.93;;;;;;;-143.29;100.00;62188.47;4894012;29;20044;-80
2023/04/30 04:53:44;;;;;;;12.10;7.97;;;;;;;-143.29;100.00;62188.47;4894682;29;20036;-80
2023/04/30 04:56:09;;;;;;;9.75;7.10;;;;;;;-143.29;100.00;62188.47;4893003;29;20028;-80
2023/04/30 04:58:35;;;;;;;11.75;7.30;;;;;;;-143.29;100.00;62188.47;4894285;29;20028;-80
2023/04/30 05:01:00;;;;;;;10.32;6.95;;;;;;;-143.29;100.00;62188.47;4893274;29;20071;-80
2023/04/30 05:03:29;;;;;;;8.90;6.82;;;;;;;-143.29;100.00;62188.47;4892688;29;20033;-80
2023/04/30 05:05:55;;;;;;;10.23;7.47;;;;;;;-143.29;100.00;62188.47;4893688;29;20036;-80
2023/04/30 05:08:20;;;;;;;12.68;7.45;;;;;;;-143.29;100.00;62188.47;4892859;29;20029;-80
2023/04/30 05:10:46;;;;;;;8.65;7.18;;;;;;;-143.29;100.00;62188.47;4892476;29;20141;-80
2023/04/30 05:13:11;;;;;;;10.05;7.10;;;;;;;-143.29;100.00;62188.47;4891672;29;20021;-80
2023/04/30 05:15:36;;;;;;;9.85;7.60;;;;;;;-143.29;100.00;62188.47;4891645;29;20032;-80
2023/04/30 05:18:02;;;;;;;10.45;6.78;;;;;;;-143.29;100.00;62188.47;4893411;29;20150;-80
2023/04/30 05:20:28;;;;;;;11.20;7.22;;;;;;;-143.29;100.00;62188.47;4891151;29;20111;-80
2023/04/30 05:22:53;;;;;;;9.73;7.90;;;;;;;-143.29;100.00;62188.47;4891504;29;20088;-80
2023/04/30 05:25:18;;;;;;;9.18;6.57;;;;;;;-143.29;100.00;62188.47;4891972;29;20033;-80
2023/04/30 05:27:44;;;;;;;10.18;7.88;;;;;;;-143.29;100.00;62188.47;4892778;29;20124;-80
2023/04/30 05:30:10;;;;;;;9.60;7.38;;;;;;;-143.29;100.00;62188.47;4892252;29;20025;-80
2023/04/30 05:32:35;;;;;;;12.00;8.60;;;;;;;-143.29;100.00;62188.47;4890255;29;20037;-80
2023/04/30 05:35:00;;;;;;;12.70;7.80;;;;;;;-143.29;100.00;62188.47;4892372;29;20684;-80
2023/04/30 05:37:26;;;;;;;9.07;7.38;;;;;;;-143.29;100.00;62188.47;4894323;29;20040;-80
2023/04/30 05:39:52;;;;;;;10.50;7.47;;;;;;;-143.29;100.00;62188.47;4895675;29;20387;-80
2023/04/30 05:42:18;;;;;;;12.52;8.40;;;;;;;-143.29;100.00;62188.47;4892745;29;20084;-80
2023/04/30 05:44:44;;;;;;;10.13;7.65;;;;;;;-143.29;100.00;62188.47;4893962;29;20033;-80
2023/04/30 05:47:09;;;;;;;9.85;8.02;;;;;;;-143.29;100.00;62188.47;4893000;29;20024;-79
2023/04/30 05:49:35;;;;;;;13.82;8.40;;;;;;;-143.29;100.00;62188.47;4892851;29;20033;-80
2023/04/30 05:52:02;;;;;;;12.77;8.27;;;;;;;-143.29;100.00;62188.47;4893152;29;20044;-80
2023/04/30 05:54:28;;;;;;;9.23;7.63;;;;;;;-143.29;100.00;62188.47;4891752;29;20044;-80
2023/04/30 05:56:53;;;;;;;11.50;7.93;;;;;;;-143.29;100.00;62188.47;4892499;29;20033;-80
2023/04/30 05:59:19;;;;;;;11.20;7.60;;;;;;;-143.29;100.00;62188.47;4891280;29;20036;-80
2023/04/30 06:01:44;;;;;;;11.50;7.55;;;;;;;-143.29;100.00;62188.47;4893322;29;20035;-80
2023/04/30 06:04:10;;;;;;;10.52;7.82;;;;;;;-143.29;100.00;62188.47;4891983;29;20108;-80
2023/04/30 06:06:35;;;;;;;11.45;7.70;;;;;;;-143.29;100.00;62188.47;4892094;29;20033;-80
2023/04/30 06:09:01;;;;;;;8.88;7.32;;;;;;;-143.29;100.00;62188.47;4894159;29;20043;-80
2023/04/30 06:11:26;;;;;;;10.43;8.18;;;;;;;-143.29;100.00;62188.47;4891777;29;20490;-80
2023/04/30 06:13:52;;;;;;;11.55;8.07;;;;;;;-143.29;100.00;62188.47;4892790;29;20041;-80
2023/04/30 06:16:17;;;;;;;9.45;6.90;;;;;;;-143.29;100.00;62188.47;4889368;29;20036;-80
2023/04/30 06:18:43;;;;;;;9.70;7.43;;;;;;;-143.29;100.00;62188.47;4897046;29;20111;-80
2023/04/30 06:21:08;;;;;;;11.07;7.50;;;;;;;-143.29;100.00;62188.47;4891408;29;20084;-79
2023/04/30 06:23:34;;;;;;;10.95;7.95;;;;;;;-143.29;100.00;62188.47;4892757;29;20041;-80
2023/04/30 06:25:59;;;;;;;10.88;9.10;;;;;;;-143.29;100.00;62188.47;4893493;29;20123;-80
2023/04/30 06:28:25;;;;;;;9.75;7.85;;;;;;;-143.29;100.00;62188.47;4894451;29;20420;-80
2023/04/30 06:30:51;;;;;;;11.85;8.35;;;;;;;-143.29;100.00;62188.47;4892083;29;20048;-80
2023/04/30 06:33:16;;;;;;;10.27;7.85;;;;;;;-143.29;100.00;62188.47;4890745;29;20411;-80
2023/04/30 06:35:42;;;;;;;11.65;8.20;;;;;;;-143.29;100.00;62188.47;4893271;29;20436;-80
2023/04/30 06:38:07;;;;;;;13.50;8.60;;;;;;;-143.29;100.00;62188.47;4894121;29;20037;-80
2023/04/30 06:40:33;;;;;;;11.40;7.90;;;;;;;-143.29;100.00;62188.47;4896209;29;20471;-80
2023/04/30 06:42:58;;;;;;;9.73;7.72;;;;;;;-143.29;100.00;62188.47;4893163;29;20396;-80
2023/04/30 06:45:23;;;;;;;11.15;8.45;;;;;;;-143.29;100.00;62188.47;4893347;29;20024;-80
2023/04/30 06:47:50;;;;;;;12.23;8.20;;;;;;;-143.29;100.00;62188.47;4893376;29;20033;-80
2023/04/30 06:50:15;;;;;;;10.93;7.78;;;;;;;-143.29;100.00;62188.47;4895903;29;20024;-80
2023/04/30 06:52:41;;;;;;;11.55;8.70;;;;;;;-143.29;100.00;62188.47;4895329;29;20027;-80
2023/04/30 06:55:08;;;;;;;9.57;8.07;;;;;;;-143.29;100.00;62188.47;4897842;29;20028;-80
2023/04/30 06:57:36;;;;;;;11.98;8.68;;;;;;;-143.29;100.00;62188.47;4891596;29;20141;-80
2023/04/30 07:00:01;;;;;;;11.10;8.30;;;;;;;-143.29;100.00;62188.47;4894181;29;20037;-80
2023/04/30 07:02:26;;;;;;;11.43;9.07;;;;;;;-143.29;100.00;62188.47;4896404;29;20443;-80
2023/04/30 07:04:53;;;;;;;12.27;9.80;;;;;;;-143.29;100.00;62188.47;4896020;29;20068;-80
2023/04/30 07:07:18;;;;;;;13.20;9.23;;;;;;;-143.29;100.00;62188.47;4894974;29;20396;-80
2023/04/30 07:09:43;;;;;;;13.45;9.60;;;;;;;-143.29;100.00;62188.47;4896022;29;20027;-80
2023/04/30 07:12:10;;;;;;;10.90;8.38;;;;;;;-143.29;100.00;62188.47;4893424;29;20575;-80
2023/04/30 07:14:36;;;;;;;18.27;11.05;;;;;;;-143.29;100.00;62188.47;4895760;29;20029;-80
2023/04/30 07:17:01;;;;;;;12.50;9.13;;;;;;;-143.29;100.00;62188.47;4892869;29;20038;-80
2023/04/30 07:19:26;;;;;;;12.60;9.07;;;;;;;-143.29;100.00;62188.47;4893566;29;20056;-80
2023/04/30 07:21:52;;;;;;;13.88;10.05;;;;;;;-143.29;100.00;62188.47;4895610;29;20020;-80
2023/04/30 07:24:17;;;;;;;12.90;9.80;;;;;;;-143.29;100.00;62188.47;4893450;29;20033;-80
2023/04/30 07:26:42;;;;;;;12.05;8.95;;;;;;;-143.29;100.00;62188.47;4896929;29;20021;-80
2023/04/30 07:29:08;;;;;;;11.65;9.20;;;;;;;-143.29;100.00;62188.47;4892291;29;20048;-80
2023/04/30 07:31:33;;;;;;;16.15;10.60;;;;;;;-143.29;100.00;62188.47;4892954;29;20037;-80
2023/04/30 07:33:58;;;;;;;14.75;10.00;;;;;;;-143.29;100.00;62188.47;4887840;29;20044;-80
2023/04/30 07:36:26;;;;;;;14.80;10.10;;;;;;;-143.29;100.00;62188.47;4896300;29;20036;-86
2023/04/30 07:38:51;;;;;;;13.95;8.40;;;;;;;-143.29;100.00;62188.47;4895764;29;20167;-86
2023/04/30 07:41:17;;;;;;;13.48;9.52;;;;;;;-143.29;100.00;62188.47;4895625;29;20128;-86
2023/04/30 07:43:42;;;;;;;16.10;8.57;;;;;;;-143.29;100.00;62188.47;4895432;29;20108;-86
2023/04/30 07:46:07;;;;;;;14.32;8.60;;;;;;;-143.29;100.00;62188.47;4895795;29;20033;-79
2023/04/30 07:48:33;;;;;;;12.73;9.38;;;;;;;-143.29;100.00;62188.47;4894664;29;20048;-79
2023/04/30 07:50:58;;;;;;;13.63;8.63;;;;;;;-143.29;100.00;62188.47;4894503;29;20024;-79
2023/04/30 07:53:23;;;;;;;9.75;7.10;;;;;;;-143.29;100.00;62188.47;4893610;29;20085;-79
2023/04/30 07:55:49;;;;;;;13.57;8.07;;;;;;;-143.29;100.00;62188.47;4891816;29;20391;-79
2023/04/30 07:58:14;;;;;;;11.05;8.20;;;;;;;-143.29;100.00;62188.47;4890232;29;20029;-79
2023/04/30 08:00:39;;;;;;;15.13;9.40;;;;;;;-143.29;100.00;62188.47;4892461;29;20092;-79
2023/04/30 08:03:05;;;;;;;12.02;8.90;;;;;;;-143.29;100.00;62188.47;4893109;29;20029;-79
2023/04/30 08:05:30;;;;;;;11.63;8.65;;;;;;;-143.29;100.00;62188.47;4892109;29;20108;-79
2023/04/30 08:07:56;;;;;;;12.82;8.80;;;;;;;-143.29;100.00;62188.47;4895015;29;20554;-79
2023/04/30 08:10:21;;;;;;;17.50;9.02;;;;;;;-143.29;100.00;62188.47;4892285;29;20035;-78
2023/04/30 08:12:46;;;;;;;17.27;8.65;;;;;;;-143.29;100.00;62188.47;4893530;29;20107;-79
2023/04/30 08:15:12;;;;;;;12.68;8.55;;;;;;;-143.29;100.00;62188.47;4896139;29;20131;-79
2023/04/30 08:17:37;;;;;;;13.55;8.65;;;;;;;-143.29;100.00;62188.47;4893595;29;20136;-79
2023/04/30 08:20:04;;;;;;;11.27;8.45;;;;;;;-143.29;100.00;62188.47;4895997;29;20454;-78
2023/04/30 08:22:29;;;;;;;16.85;9.20;;;;;;;-143.29;100.00;62188.47;4895183;29;20488;-78
2023/04/30 08:24:55;;;;;;;12.50;9.70;;;;;;;-143.29;100.00;62188.47;4894338;29;20048;-78
2023/04/30 08:27:21;;;;;;;11.82;9.32;;;;;;;-143.29;100.00;62188.47;4892403;29;20085;-78
2023/04/30 08:29:47;;;;;;;11.77;9.73;;;;;;;-143.29;100.00;62188.47;4894981;29;20036;-77
2023/04/30 08:32:12;;;;;;;16.60;11.05;;;;;;;-143.29;100.00;62188.47;4892423;29;20079;-78
2023/04/30 08:34:39;;;;;;;16.42;10.10;;;;;;;-143.29;100.00;62188.47;4893145;29;20092;-77
2023/04/30 08:37:05;;;;;;;12.48;9.85;;;;;;;-143.29;100.00;62188.47;4893823;29;20036;-78
2023/04/30 08:39:31;;;;;;;11.90;8.50;;;;;;;-143.29;100.00;62188.47;4892836;29;20032;-78
2023/04/30 08:42:01;;;;;;;10.50;8.52;;;;;;;-143.29;100.00;62188.47;4891302;29;20037;-78
2023/04/30 08:44:27;;;;;;;25.30;10.27;;;;;;;-143.29;100.00;62188.47;4894011;29;20032;-78
2023/04/30 08:46:54;;;;;;;14.10;9.23;;;;;;;-143.29;100.00;62188.47;4897558;29;20083;-77
2023/04/30 08:49:21;;;;;;;14.68;10.10;;;;;;;-143.29;100.00;62188.47;4892890;29;20123;-76
2023/04/30 08:51:47;;;;;;;15.45;10.20;;;;;;;-143.29;100.00;62188.47;4888703;29;20037;-78
2023/04/30 08:54:13;;;;;;;16.67;11.40;;;;;;;-143.29;100.00;62188.47;4892741;29;20051;-77
2023/04/30 08:56:39;;;;;;;18.02;10.73;;;;;;;-143.29;100.00;62188.47;4894777;29;20028;-77
2023/04/30 08:59:05;;;;;;;13.13;10.05;;;;;;;-143.29;100.00;62188.47;4895312;29;20558;-77
2023/04/30 09:01:31;;;;;;;19.83;11.38;;;;;;;-143.29;100.00;62188.47;4905936;29;20032;-78
2023/04/30 09:03:56;;;;;;;16.38;12.05;;;;;;;-143.29;100.00;62188.47;4909729;29;20479;-77
2023/04/30 09:06:22;;;;;;;14.05;11.40;;;;;;;-143.29;100.00;62188.47;4894342;29;20112;-79
2023/04/30 09:08:48;;;;;;;18.02;11.35;;;;;;;-143.29;100.00;62188.47;4896484;29;20028;-77
2023/04/30 09:11:22;;;;;;;17.50;12.25;;;;;;;-143.29;100.00;62188.47;4894786;29;20087;-77
2023/04/30 09:13:53;;;;;;;15.88;11.70;;;;;;;-143.29;100.00;62188.47;4890629;29;20044;-80
2023/04/30 09:16:20;;;;;;;15.63;11.43;;;;;;;-143.29;100.00;62188.47;4892542;29;20495;-78
2023/04/30 09:18:46;;;;;;;16.98;11.95;;;;;;;-143.29;100.00;62188.47;4891128;29;20033;-78
2023/04/30 09:21:12;;;;;;;17.70;11.52;;;;;;;-143.29;100.00;62188.47;4892734;29;20024;-77
2023/04/30 09:23:58;;;;;;;19.55;11.45;;;;;;;-143.29;100.00;62188.47;4886544;29;20032;-78
2023/04/30 09:26:35;;;;;;;16.67;11.20;;;;;;;-143.29;100.00;62188.47;4893923;29;20184;-83
2023/04/30 09:29:06;;;;;;;13.65;10.75;;;;;;;-143.29;100.00;62188.47;4896130;29;20036;-79
2023/04/30 09:31:32;;;;;;;16.45;11.57;;;;;;;-143.29;100.00;62188.47;4891477;29;20037;-78
2023/04/30 09:33:58;;;;;;;14.93;10.68;;;;;;;-143.29;100.00;62188.47;4892369;29;20068;-78
2023/04/30 09:36:23;;;;;;;23.00;12.75;;;;;;;-143.29;100.00;62188.47;4893639;29;20036;-77
2023/04/30 09:38:49;;;;;;;20.83;13.45;;;;;;;-143.29;100.00;62188.47;4893787;29;20083;-78
2023/04/30 09:41:41;;;;;;;17.50;11.90;;;;;;;-143.29;100.00;62188.47;4894148;29;20036;-78
2023/04/30 09:44:06;;;;;;;20.92;11.07;;;;;;;-143.29;100.00;62188.47;4886799;29;20041;-79
2023/04/30 09:46:33;;;;;;;17.70;12.80;;;;;;;-143.29;100.00;62188.47;4889818;29;20472;-78
2023/04/30 09:49:00;;;;;;;17.55;11.38;;;;;;;-143.29;100.00;62188.47;4896091;29;20041;-78
2023/04/30 09:51:26;;;;;;;18.63;12.57;;;;;;;-143.29;100.00;62188.47;4885592;29;20033;-78
2023/04/30 09:53:53;;;;;;;17.52;11.20;;;;;;;-143.29;100.00;62188.47;4895247;29;20049;-78
2023/04/30 09:56:24;;;;;;;25.13;17.23;;;;;;;-143.29;100.00;62188.47;4893446;29;20395;-78
2023/04/30 09:58:52;;;;;;;29.67;17.60;;;;;;;-143.29;100.00;62188.47;4895228;29;20044;-77
2023/04/30 10:01:18;;;;;;;51.97;29.98;;;;;;;-143.29;100.00;62188.47;4888093;29;20033;-81
2023/04/30 10:03:46;;;;;;;41.75;27.08;;;;;;;-143.29;100.00;62188.47;4888505;29;20061;-78
2023/04/30 10:06:14;;;;;;;46.20;28.92;;;;;;;-143.29;100.00;62188.47;4902163;29;20033;-85
2023/04/30 10:08:41;;;;;;;43.90;31.38;;;;;;;-143.29;100.00;62188.47;4892439;29;20033;-84
2023/04/30 10:11:11;;;;;;;50.72;32.50;;;;;;;-143.29;100.00;62188.47;4894408;29;20037;-82
2023/04/30 10:13:44;;;;;;;50.83;32.55;;;;;;;-143.29;100.00;62188.47;4900121;29;20039;-84
2023/04/30 10:16:43;;;;;;;46.78;32.95;;;;;;;-143.29;100.00;62188.47;4896527;29;20039;-82
2023/04/30 10:19:19;;;;;;;45.67;30.35;;;;;;;-143.29;100.00;62188.47;4899638;29;20028;-82
2023/04/30 10:21:46;;;;;;;42.03;28.92;;;;;;;-143.29;100.00;62188.47;4896281;29;20574;-82
2023/04/30 10:24:13;;;;;;;42.72;29.27;;;;;;;-143.29;100.00;62188.47;4894904;29;20040;-79
2023/04/30 10:26:40;;;;;;;42.00;28.02;;;;;;;-143.29;100.00;62188.47;4899438;29;20062;-82
2023/04/30 10:29:06;;;;;;;43.95;26.48;;;;;;;-143.29;100.00;62188.47;4892608;29;20458;-82
2023/04/30 10:31:32;;;;;;;30.08;23.00;;;;;;;-143.29;100.00;62188.47;4896278;29;20029;-80
2023/04/30 10:34:08;;;;;;;33.50;22.45;;;;;;;-143.29;100.00;62188.47;4896406;29;20028;-84
2023/04/30 10:36:44;;;;;;;33.40;23.75;;;;;;;-143.29;100.00;62188.47;4898822;29;20028;-80
2023/04/30 10:39:11;;;;;;;32.97;22.75;;;;;;;-143.29;100.00;62188.47;4893454;29;20028;-79
2023/04/30 10:41:38;;;;;;;32.50;21.27;;;;;;;-143.29;100.00;62188.47;4895547;29;20044;-80
2023/04/30 10:44:06;;;;;;;32.75;22.33;;;;;;;-143.29;100.00;62188.47;4897627;29;20036;-83
2023/04/30 10:46:34;;;;;;;28.40;20.40;;;;;;;-143.29;100.00;62188.47;4895526;29;20031;-79
2023/04/30 10:48:59;;;;;;;28.45;19.80;;;;;;;-143.29;100.00;62188.47;4891159;29;20044;-80
2023/04/30 10:51:44;;;;;;;26.23;18.95;;;;;;;-143.29;100.00;62188.47;4891854;29;20036;-78
2023/04/30 10:54:10;;;;;;;35.72;20.50;;;;;;;-143.29;100.00;62188.47;4896550;29;20048;-81
2023/04/30 10:56:35;;;;;;;28.52;19.23;;;;;;;-143.29;100.00;62188.47;4896586;29;20028;-81
2023/04/30 10:59:01;;;;;;;33.25;19.08;;;;;;;-143.29;100.00;62188.47;4899075;29;20450;-82
2023/04/30 11:01:27;;;;;;;30.83;19.70;;;;;;;-143.29;100.00;62188.47;4893515;29;20028;-80